Otaru, Japan
Current Conditions -  °F | °C
As of 5:00 PM on Thursday 23 Oct 2014 (Local Time) from RJCC Reporting Station
Few Clouds Few Clouds  
Wind Chill: 42°   Ceiling: Unl
Heat Index: 46°   Visibility: 6mi
Dew Point: 34°   Wind: 8mph
Humidity: 62%   Direction: 140°SE
Pressure: 30.12"   Gusts: NA
Location:  43.2°N, 141°E
Report Text: RJCC 230800Z 14007KT 9999 FEW050 08/01 Q1020
Loading
Personal Weather Stations






























Interactive Weather Map
Tropical Storm Tracking
New forecast layout! Learn more

10-Day Weather Forecast

Advertisements
Track Severe Weather on mobile